createdAt,value
2024-01-22T00:00:22.845Z,-0.92
2024-01-22T00:02:50.520Z,-0.96
2024-01-22T00:05:18.050Z,-1.01
2024-01-22T00:07:45.711Z,-1.04
2024-01-22T00:10:13.781Z,-1.07
2024-01-22T00:12:41.339Z,-1.10
2024-01-22T00:15:08.965Z,-1.13
2024-01-22T00:17:36.742Z,-1.15
2024-01-22T00:20:04.524Z,-1.17
2024-01-22T00:22:32.099Z,-1.18
2024-01-22T00:24:59.752Z,-1.20
2024-01-22T00:27:27.404Z,-1.20
2024-01-22T00:29:55.124Z,-1.20
2024-01-22T00:32:22.797Z,-1.20
2024-01-22T00:34:50.493Z,-1.19
2024-01-22T00:37:18.162Z,-1.20
2024-01-22T00:39:46.143Z,-1.20
2024-01-22T00:42:13.925Z,-1.21
2024-01-22T00:44:41.771Z,-1.23
2024-01-22T00:47:09.333Z,-1.24
2024-01-22T00:49:36.939Z,-1.25
2024-01-22T00:52:04.535Z,-1.25
2024-01-22T00:54:32.202Z,-1.26
2024-01-22T00:56:59.799Z,-1.27
2024-01-22T00:59:27.620Z,-1.28
2024-01-22T01:01:55.182Z,-1.29
2024-01-22T01:04:22.789Z,-1.29
2024-01-22T01:06:50.400Z,-1.30
2024-01-22T01:09:18.087Z,-1.30
2024-01-22T01:11:45.752Z,-1.29
2024-01-22T01:14:13.487Z,-1.31
2024-01-22T01:16:41.149Z,-1.32
2024-01-22T01:19:09.241Z,-1.32
2024-01-22T01:21:36.981Z,-1.35
2024-01-22T01:24:04.686Z,-1.35
2024-01-22T01:26:32.388Z,-1.36
2024-01-22T01:28:59.971Z,-1.37
2024-01-22T01:31:27.519Z,-1.36
2024-01-22T01:33:55.311Z,-1.37
2024-01-22T01:36:23.162Z,-1.38
2024-01-22T01:38:50.845Z,-1.38
2024-01-22T01:41:18.503Z,-1.37
2024-01-22T01:43:46.454Z,-1.37
2024-01-22T01:46:14.004Z,-1.35
2024-01-22T01:48:41.718Z,-1.36
2024-01-22T01:51:09.614Z,-1.36
2024-01-22T01:53:37.317Z,-1.36
2024-01-22T01:56:04.969Z,-1.36
2024-01-22T01:58:32.519Z,-1.34
2024-01-22T02:01:00.156Z,-1.33
2024-01-22T02:03:28.296Z,-1.31
2024-01-22T02:05:56.065Z,-1.30
2024-01-22T02:08:23.678Z,-1.29
2024-01-22T02:10:51.341Z,-1.28
2024-01-22T02:13:18.893Z,-1.29
2024-01-22T02:15:46.567Z,-1.30
2024-01-22T02:18:14.283Z,-1.30
2024-01-22T02:20:42.162Z,-1.30
2024-01-22T02:23:09.842Z,-1.30
2024-01-22T02:25:37.818Z,-1.29
2024-01-22T02:28:05.386Z,-1.29
2024-01-22T02:30:33.087Z,-1.26
2024-01-22T02:33:00.878Z,-1.24
2024-01-22T02:35:28.572Z,-1.24
2024-01-22T02:37:56.126Z,-1.23
2024-01-22T02:40:23.681Z,-1.20
2024-01-22T02:42:51.340Z,-1.19
2024-01-22T02:45:19.413Z,-1.20
2024-01-22T02:47:47.256Z,-1.21
2024-01-22T02:50:15.150Z,-1.21
2024-01-22T02:52:42.809Z,-1.20
2024-01-22T02:55:10.377Z,-1.21
2024-01-22T02:57:38.023Z,-1.21
2024-01-22T03:00:05.929Z,-1.21
2024-01-22T03:02:33.816Z,-1.21
2024-01-22T03:05:01.832Z,-1.20
2024-01-22T03:07:29.589Z,-1.20
2024-01-22T03:09:57.158Z,-1.19
2024-01-22T03:12:24.730Z,-1.18
2024-01-22T03:14:52.423Z,-1.17
2024-01-22T03:17:20.121Z,-1.17
2024-01-22T03:19:47.938Z,-1.16
2024-01-22T03:22:15.781Z,-1.17
2024-01-22T03:24:43.320Z,-1.17
2024-01-22T03:27:11.203Z,-1.17
2024-01-22T03:29:38.968Z,-1.15
2024-01-22T03:32:06.496Z,-1.15
2024-01-22T03:34:34.218Z,-1.13
2024-01-22T03:37:01.952Z,-1.14
2024-01-22T03:39:29.626Z,-1.14
2024-01-22T03:41:57.268Z,-1.14
2024-01-22T03:44:24.906Z,-1.14
2024-01-22T03:46:52.774Z,-1.11
2024-01-22T03:49:20.896Z,-1.10
2024-01-22T03:51:48.713Z,-1.08
2024-01-22T03:54:16.368Z,-1.08
2024-01-22T03:56:44.057Z,-1.08
2024-01-22T03:59:11.704Z,-1.10
2024-01-22T04:01:39.463Z,-1.09
2024-01-22T04:04:07.151Z,-1.09
2024-01-22T04:06:35.251Z,-1.10
2024-01-22T04:09:03.189Z,-1.10
2024-01-22T04:11:30.948Z,-1.11
2024-01-22T04:13:58.684Z,-1.13
2024-01-22T04:16:26.587Z,-1.14
2024-01-22T04:18:54.265Z,-1.15
2024-01-22T04:21:22.131Z,-1.17
2024-01-22T04:23:49.991Z,-1.18
2024-01-22T04:26:17.910Z,-1.18
2024-01-22T04:28:45.480Z,-1.19
2024-01-22T04:31:13.444Z,-1.20
2024-01-22T04:33:41.219Z,-1.18
2024-01-22T04:36:09.191Z,-1.18
2024-01-22T04:38:36.979Z,-1.18
2024-01-22T04:41:04.607Z,-1.18
2024-01-22T04:43:32.358Z,-1.17
2024-01-22T04:46:00.041Z,-1.17
2024-01-22T04:48:27.812Z,-1.17
2024-01-22T04:50:55.971Z,-1.16
2024-01-22T04:53:23.820Z,-1.18
2024-01-22T04:55:51.376Z,-1.20
2024-01-22T04:58:18.951Z,-1.21
2024-01-22T05:00:46.540Z,-1.22
2024-01-22T05:03:14.610Z,-1.23
2024-01-22T05:05:42.520Z,-1.23
2024-01-22T05:08:10.213Z,-1.23
2024-01-22T05:10:38.280Z,-1.22
2024-01-22T05:13:06.046Z,-1.19
2024-01-22T05:15:33.709Z,-1.19
2024-01-22T05:18:01.344Z,-1.19
2024-01-22T05:20:29.218Z,-1.19
2024-01-22T05:22:56.873Z,-1.17
2024-01-22T05:25:24.657Z,-1.17
2024-01-22T05:27:52.312Z,-1.17
2024-01-22T05:30:20.064Z,-1.15
2024-01-22T05:32:50.306Z,-1.15
2024-01-22T05:35:19.074Z,-1.14
2024-01-22T05:37:46.749Z,-1.14
2024-01-22T05:40:15.297Z,-1.13
2024-01-22T05:42:44.458Z,-1.13
2024-01-22T05:45:14.739Z,-1.13
2024-01-22T05:47:42.578Z,-1.13
2024-01-22T05:50:10.398Z,-1.13
2024-01-22T05:52:38.439Z,-1.14
2024-01-22T05:55:06.236Z,-1.13
2024-01-22T05:57:33.976Z,-1.13
2024-01-22T06:00:01.613Z,-1.13
2024-01-22T06:02:29.502Z,-1.12
2024-01-22T06:04:57.261Z,-1.11
2024-01-22T06:07:24.994Z,-1.08
2024-01-22T06:09:58.928Z,-1.06
2024-01-22T06:12:30.383Z,-1.01
2024-01-22T06:14:57.972Z,-0.96
2024-01-22T06:17:25.661Z,-0.92
2024-01-22T06:19:53.642Z,-0.87
2024-01-22T06:22:21.443Z,-0.82
2024-01-22T06:24:49.407Z,-0.79
2024-01-22T06:27:17.241Z,-0.75
2024-01-22T06:29:44.941Z,-0.70
2024-01-22T06:32:13.141Z,-0.68
2024-01-22T06:34:41.227Z,-0.65
2024-01-22T06:37:09.036Z,-0.62
2024-01-22T06:39:36.910Z,-0.59
2024-01-22T06:42:04.809Z,-0.58
2024-01-22T06:44:32.645Z,-0.55
2024-01-22T06:47:00.507Z,-0.51
2024-01-22T06:49:28.476Z,-0.46
2024-01-22T06:51:56.369Z,-0.39
2024-01-22T06:54:24.466Z,-0.32
2024-01-22T06:56:52.225Z,-0.25
2024-01-22T06:59:19.843Z,-0.18
2024-01-22T07:01:47.418Z,-0.10
2024-01-22T07:04:15.317Z,-0.02
2024-01-22T07:06:43.099Z,0.06
2024-01-22T07:09:10.631Z,0.13
2024-01-22T07:11:38.690Z,0.21
2024-01-22T07:14:06.449Z,0.28
2024-01-22T07:16:34.398Z,0.38
2024-01-22T07:19:02.238Z,0.45
2024-01-22T07:21:30.235Z,0.56
2024-01-22T07:23:57.959Z,0.66
2024-01-22T07:26:25.744Z,0.74
2024-01-22T07:28:53.611Z,0.82
2024-01-22T07:31:21.173Z,0.90
2024-01-22T07:33:49.153Z,0.95
2024-01-22T07:36:16.952Z,0.99
2024-01-22T07:38:45.044Z,1.03
2024-01-22T07:41:13.755Z,1.05
2024-01-22T07:43:41.319Z,1.06
2024-01-22T07:46:08.973Z,1.13
2024-01-22T07:48:36.628Z,1.22
2024-01-22T07:51:04.434Z,1.29
2024-01-22T07:53:32.063Z,1.34
2024-01-22T07:55:59.737Z,1.39
2024-01-22T07:58:27.293Z,1.46
2024-01-22T08:00:55.017Z,1.56
2024-01-22T08:03:22.793Z,1.66
2024-01-22T08:05:50.854Z,1.76
2024-01-22T08:08:18.544Z,1.84
2024-01-22T08:10:46.213Z,1.90
2024-01-22T08:13:14.082Z,1.95
2024-01-22T08:15:41.948Z,1.98
2024-01-22T08:18:09.556Z,2.02
2024-01-22T08:20:37.383Z,2.01
2024-01-22T08:23:05.034Z,2.04
2024-01-22T08:25:32.693Z,2.10
2024-01-22T08:28:00.462Z,2.17
2024-01-22T08:30:28.447Z,2.25
2024-01-22T08:32:56.584Z,2.31
2024-01-22T08:35:24.665Z,2.38
2024-01-22T08:37:52.330Z,2.44
2024-01-22T08:40:20.190Z,2.50
2024-01-22T08:42:47.958Z,2.58
2024-01-22T08:45:15.728Z,2.64
2024-01-22T08:47:43.530Z,2.74
2024-01-22T08:50:11.257Z,2.80
2024-01-22T08:52:38.911Z,2.85
2024-01-22T08:55:06.565Z,2.90
2024-01-22T08:57:34.233Z,2.86
2024-01-22T09:00:01.897Z,2.82
2024-01-22T09:02:29.850Z,2.80
2024-01-22T09:04:57.433Z,2.77
2024-01-22T09:07:25.082Z,2.74
2024-01-22T09:09:52.754Z,2.65
2024-01-22T09:12:20.354Z,2.67
2024-01-22T09:14:48.179Z,2.73
2024-01-22T09:17:15.724Z,2.82
2024-01-22T09:19:43.788Z,2.94
2024-01-22T09:22:11.452Z,3.01
2024-01-22T09:24:39.112Z,3.10
2024-01-22T09:27:06.915Z,3.19
2024-01-22T09:29:34.744Z,3.30
2024-01-22T09:32:02.403Z,3.42
2024-01-22T09:34:30.151Z,3.55
2024-01-22T09:36:57.829Z,3.64
2024-01-22T09:39:25.523Z,3.78
2024-01-22T09:41:53.534Z,3.86
2024-01-22T09:44:21.220Z,3.93
2024-01-22T09:46:48.781Z,4.03
2024-01-22T09:49:16.772Z,4.10
2024-01-22T09:51:44.413Z,4.12
2024-01-22T09:54:12.166Z,4.13
2024-01-22T09:56:39.865Z,4.10
2024-01-22T09:59:07.400Z,4.03
2024-01-22T10:01:35.298Z,3.96
2024-01-22T10:04:02.981Z,3.90
2024-01-22T10:06:30.772Z,3.86
2024-01-22T10:08:58.487Z,3.87
2024-01-22T10:11:26.327Z,3.89
2024-01-22T10:13:54.227Z,3.89
2024-01-22T10:16:21.865Z,3.97
2024-01-22T10:18:49.810Z,4.02
2024-01-22T10:21:17.584Z,4.05
2024-01-22T10:23:45.156Z,4.08
2024-01-22T10:26:13.206Z,4.10
2024-01-22T10:28:40.866Z,4.10
2024-01-22T10:31:08.536Z,4.12
2024-01-22T10:33:36.322Z,4.11
2024-01-22T10:36:04.175Z,4.12
2024-01-22T10:38:31.728Z,4.11
2024-01-22T10:41:00.309Z,4.11
2024-01-22T10:43:28.565Z,4.10
2024-01-22T10:45:57.845Z,4.11
2024-01-22T10:48:37.026Z,4.09
2024-01-22T10:51:10.343Z,4.07
2024-01-22T10:53:38.323Z,4.06
2024-01-22T10:56:07.098Z,4.03
2024-01-22T10:58:35.430Z,4.00
2024-01-22T11:01:03.369Z,4.01
2024-01-22T11:03:31.584Z,3.99
2024-01-22T11:05:59.324Z,3.96
2024-01-22T11:08:27.205Z,3.86
2024-01-22T11:10:55.172Z,3.78
2024-01-22T11:13:22.831Z,3.74
2024-01-22T11:15:50.397Z,3.68
2024-01-22T11:18:18.187Z,3.59
2024-01-22T11:20:45.967Z,3.53
2024-01-22T11:23:13.788Z,3.48
2024-01-22T11:25:41.758Z,3.44
2024-01-22T11:28:09.419Z,3.42
2024-01-22T11:30:37.093Z,3.37
2024-01-22T11:33:05.009Z,3.33
2024-01-22T11:35:32.968Z,3.28
2024-01-22T11:38:00.874Z,3.23
2024-01-22T11:40:28.441Z,3.19
2024-01-22T11:42:56.501Z,3.14
2024-01-22T11:45:29.948Z,3.11
2024-01-22T11:48:00.624Z,3.04
2024-01-22T11:50:29.215Z,3.01
2024-01-22T11:52:57.285Z,2.97
2024-01-22T11:55:25.046Z,2.89
2024-01-22T11:57:53.739Z,2.79
2024-01-22T12:00:21.919Z,2.69
2024-01-22T12:02:49.776Z,2.64
2024-01-22T12:05:17.947Z,2.58
2024-01-22T12:07:45.610Z,2.50
2024-01-22T12:10:13.992Z,2.45
2024-01-22T12:12:41.544Z,2.37
2024-01-22T12:15:09.249Z,2.29
2024-01-22T12:17:36.895Z,2.21
2024-01-22T12:20:04.694Z,2.12
2024-01-22T12:22:32.397Z,2.06
2024-01-22T12:25:00.057Z,2.02
2024-01-22T12:27:28.100Z,1.97
2024-01-22T12:29:56.018Z,1.92
2024-01-22T12:32:23.793Z,1.87
2024-01-22T12:34:51.741Z,1.81
2024-01-22T12:37:19.608Z,1.77
2024-01-22T12:39:48.257Z,1.71
2024-01-22T12:42:16.619Z,1.66
2024-01-22T12:44:44.435Z,1.63
2024-01-22T12:47:12.387Z,1.62
2024-01-22T12:49:40.274Z,1.59
2024-01-22T12:52:08.732Z,1.58
2024-01-22T12:54:36.526Z,1.58
2024-01-22T12:57:05.509Z,1.56
2024-01-22T12:59:34.731Z,1.56
2024-01-22T13:02:02.969Z,1.53
2024-01-22T13:04:31.080Z,1.49
2024-01-22T13:06:58.935Z,1.46
2024-01-22T13:09:26.785Z,1.42
2024-01-22T13:11:54.342Z,1.40
2024-01-22T13:14:25.374Z,1.36
2024-01-22T13:16:53.746Z,1.33
2024-01-22T13:19:21.589Z,1.31
2024-01-22T13:21:49.482Z,1.28
2024-01-22T13:24:17.044Z,1.28
2024-01-22T13:26:45.257Z,1.26
2024-01-22T13:29:13.078Z,1.26
2024-01-22T13:31:40.777Z,1.27
2024-01-22T13:34:08.742Z,1.28
2024-01-22T13:36:36.600Z,1.31
2024-01-22T13:39:04.586Z,1.35
2024-01-22T13:41:32.302Z,1.40
2024-01-22T13:43:59.865Z,1.42
2024-01-22T13:46:27.517Z,1.45
2024-01-22T13:48:55.854Z,1.49
2024-01-22T13:51:23.785Z,1.53
2024-01-22T13:53:51.376Z,1.57
2024-01-22T13:56:19.189Z,1.59
2024-01-22T13:58:46.846Z,1.61
2024-01-22T14:01:14.486Z,1.63
2024-01-22T14:03:42.292Z,1.65
2024-01-22T14:06:10.115Z,1.67
2024-01-22T14:08:38.644Z,1.69
2024-01-22T14:11:07.011Z,1.72
2024-01-22T14:13:34.858Z,1.75
2024-01-22T14:16:02.948Z,1.77
2024-01-22T14:18:31.612Z,1.77
2024-01-22T14:20:59.417Z,1.78
2024-01-22T14:23:27.047Z,1.79
2024-01-22T14:25:54.904Z,1.81
2024-01-22T14:28:22.571Z,1.84
2024-01-22T14:30:50.144Z,1.85
2024-01-22T14:33:17.936Z,1.87
2024-01-22T14:35:46.067Z,1.88
2024-01-22T14:38:15.491Z,1.87
2024-01-22T14:40:44.868Z,1.86
2024-01-22T14:43:12.943Z,1.85
2024-01-22T14:45:40.497Z,1.83
2024-01-22T14:48:08.188Z,1.82
2024-01-22T14:50:35.920Z,1.82
2024-01-22T14:53:05.005Z,1.80
2024-01-22T14:55:32.986Z,1.80
2024-01-22T14:58:00.648Z,1.80
2024-01-22T15:00:28.427Z,1.80
2024-01-22T15:02:56.128Z,1.80
2024-01-22T15:05:23.966Z,1.79
2024-01-22T15:07:51.957Z,1.79
2024-01-22T15:10:19.975Z,1.79
2024-01-22T15:12:47.847Z,1.79
2024-01-22T15:15:15.864Z,1.78
2024-01-22T15:17:43.946Z,1.78
2024-01-22T15:20:12.334Z,1.77
2024-01-22T15:22:40.229Z,1.76
2024-01-22T15:25:08.136Z,1.75
2024-01-22T15:27:36.014Z,1.73
2024-01-22T15:30:03.905Z,1.72
2024-01-22T15:32:31.664Z,1.69
2024-01-22T15:34:59.512Z,1.66
2024-01-22T15:37:27.533Z,1.66
2024-01-22T15:39:55.692Z,1.65
2024-01-22T15:42:23.304Z,1.65
2024-01-22T15:44:51.267Z,1.65
2024-01-22T15:47:19.195Z,1.66
2024-01-22T15:49:46.914Z,1.66
2024-01-22T15:52:15.523Z,1.67
2024-01-22T15:54:44.643Z,1.67
2024-01-22T15:57:12.547Z,1.67
2024-01-22T15:59:40.177Z,1.68
2024-01-22T16:02:07.728Z,1.69
2024-01-22T16:04:35.524Z,1.69
2024-01-22T16:07:10.532Z,1.67
2024-01-22T16:09:41.694Z,1.64
2024-01-22T16:12:09.801Z,1.61
2024-01-22T16:14:38.370Z,1.57
2024-01-22T16:17:07.129Z,1.54
2024-01-22T16:19:35.076Z,1.51
2024-01-22T16:22:03.046Z,1.48
2024-01-22T16:24:30.928Z,1.45
2024-01-22T16:26:58.811Z,1.44
2024-01-22T16:29:26.444Z,1.42
2024-01-22T16:31:54.203Z,1.39
2024-01-22T16:34:22.277Z,1.37
2024-01-22T16:36:50.094Z,1.34
2024-01-22T16:39:17.557Z,1.33
2024-01-22T16:41:45.096Z,1.32
2024-01-22T16:44:12.938Z,1.33
2024-01-22T16:46:40.682Z,1.33
2024-01-22T16:49:08.430Z,1.34
2024-01-22T16:51:36.208Z,1.36
2024-01-22T16:54:03.998Z,1.38
2024-01-22T16:56:31.851Z,1.40
2024-01-22T16:58:59.513Z,1.41
2024-01-22T17:01:27.177Z,1.42
2024-01-22T17:03:55.284Z,1.42
2024-01-22T17:06:22.941Z,1.42
2024-01-22T17:08:50.828Z,1.43
2024-01-22T17:11:18.623Z,1.43
2024-01-22T17:13:46.380Z,1.45
2024-01-22T17:16:14.778Z,1.47
2024-01-22T17:18:42.591Z,1.50
2024-01-22T17:21:10.434Z,1.52
2024-01-22T17:23:38.541Z,1.54
2024-01-22T17:26:06.943Z,1.54
2024-01-22T17:28:34.504Z,1.55
2024-01-22T17:31:02.375Z,1.57
2024-01-22T17:33:31.221Z,1.57
2024-01-22T17:35:59.041Z,1.58
2024-01-22T17:38:26.877Z,1.60
2024-01-22T17:40:54.656Z,1.61
2024-01-22T17:43:22.722Z,1.62
2024-01-22T17:45:50.696Z,1.63
2024-01-22T17:48:18.458Z,1.65
2024-01-22T17:50:46.362Z,1.64
2024-01-22T17:53:14.193Z,1.63
2024-01-22T17:55:41.852Z,1.63
2024-01-22T17:58:09.512Z,1.62
2024-01-22T18:00:37.317Z,1.61
2024-01-22T18:03:05.197Z,1.60
2024-01-22T18:05:33.107Z,1.59
2024-01-22T18:08:00.780Z,1.58
2024-01-22T18:10:28.441Z,1.59
2024-01-22T18:12:56.098Z,1.58
2024-01-22T18:15:23.781Z,1.59
2024-01-22T18:17:51.705Z,1.59
2024-01-22T18:20:19.491Z,1.59
2024-01-22T18:22:47.160Z,1.59
2024-01-22T18:25:14.811Z,1.58
2024-01-22T18:27:42.832Z,1.58
2024-01-22T18:30:10.746Z,1.59
2024-01-22T18:32:38.419Z,1.59
2024-01-22T18:35:06.166Z,1.59
2024-01-22T18:37:33.956Z,1.57
2024-01-22T18:40:01.602Z,1.56
2024-01-22T18:42:29.295Z,1.54
2024-01-22T18:44:57.038Z,1.53
2024-01-22T18:47:26.178Z,1.53
2024-01-22T18:49:53.805Z,1.54
2024-01-22T18:52:21.443Z,1.55
2024-01-22T18:54:49.009Z,1.56
2024-01-22T18:57:16.634Z,1.55
2024-01-22T18:59:44.416Z,1.54
2024-01-22T19:02:11.978Z,1.53
2024-01-22T19:04:39.743Z,1.54
2024-01-22T19:07:07.713Z,1.54
2024-01-22T19:09:35.391Z,1.56
2024-01-22T19:12:03.051Z,1.59
2024-01-22T19:14:30.684Z,1.62
2024-01-22T19:16:58.250Z,1.64
2024-01-22T19:19:26.092Z,1.64
2024-01-22T19:21:54.087Z,1.65
2024-01-22T19:24:21.826Z,1.66
2024-01-22T19:26:49.551Z,1.69
2024-01-22T19:29:17.067Z,1.69
2024-01-22T19:31:44.635Z,1.68
2024-01-22T19:34:12.386Z,1.67
2024-01-22T19:36:40.145Z,1.65
2024-01-22T19:39:07.772Z,1.64
2024-01-22T19:41:35.580Z,1.61
2024-01-22T19:44:03.136Z,1.62
2024-01-22T19:46:30.769Z,1.63
2024-01-22T19:48:58.791Z,1.64
2024-01-22T19:51:26.749Z,1.64
2024-01-22T19:53:54.228Z,1.64
2024-01-22T19:56:21.850Z,1.66
2024-01-22T19:58:49.518Z,1.69
2024-01-22T20:01:17.172Z,1.70
2024-01-22T20:03:45.086Z,1.71
2024-01-22T20:06:14.057Z,1.72
2024-01-22T20:08:41.808Z,1.71
2024-01-22T20:11:09.472Z,1.69
2024-01-22T20:13:37.434Z,1.68
2024-01-22T20:16:05.091Z,1.68
2024-01-22T20:18:32.807Z,1.66
2024-01-22T20:21:00.637Z,1.65
2024-01-22T20:23:28.178Z,1.63
2024-01-22T20:25:55.855Z,1.60
2024-01-22T20:28:23.503Z,1.59
2024-01-22T20:30:51.118Z,1.58
2024-01-22T20:33:18.923Z,1.57
2024-01-22T20:35:48.043Z,1.55
2024-01-22T20:38:17.117Z,1.52
2024-01-22T20:40:44.774Z,1.52
2024-01-22T20:43:12.437Z,1.52
2024-01-22T20:45:40.029Z,1.50
2024-01-22T20:48:07.954Z,1.48
2024-01-22T20:50:35.718Z,1.48
2024-01-22T20:53:03.291Z,1.49
2024-01-22T20:55:31.871Z,1.51
2024-01-22T20:57:59.825Z,1.52
2024-01-22T21:00:27.851Z,1.52
2024-01-22T21:02:55.779Z,1.52
2024-01-22T21:05:23.375Z,1.55
2024-01-22T21:07:50.995Z,1.55
2024-01-22T21:10:18.750Z,1.57
2024-01-22T21:12:46.619Z,1.56
2024-01-22T21:15:15.039Z,1.56
2024-01-22T21:17:42.928Z,1.58
2024-01-22T21:20:10.823Z,1.59
2024-01-22T21:22:38.488Z,1.59
2024-01-22T21:25:06.455Z,1.58
2024-01-22T21:27:34.091Z,1.58
2024-01-22T21:30:01.821Z,1.59
2024-01-22T21:32:29.565Z,1.58
2024-01-22T21:34:57.231Z,1.55
2024-01-22T21:37:25.104Z,1.53
2024-01-22T21:39:52.652Z,1.50
2024-01-22T21:42:20.271Z,1.50
2024-01-22T21:44:48.063Z,1.48
2024-01-22T21:47:15.626Z,1.45
2024-01-22T21:49:43.353Z,1.43
2024-01-22T21:52:11.049Z,1.41
2024-01-22T21:54:39.059Z,1.41
2024-01-22T21:57:07.006Z,1.39
2024-01-22T21:59:35.052Z,1.36
2024-01-22T22:02:02.809Z,1.33
2024-01-22T22:04:30.571Z,1.31
2024-01-22T22:06:58.357Z,1.28
2024-01-22T22:09:26.229Z,1.24
2024-01-22T22:11:54.527Z,1.21
2024-01-22T22:14:22.151Z,1.19
2024-01-22T22:16:50.107Z,1.15
2024-01-22T22:19:17.712Z,1.12
2024-01-22T22:21:45.943Z,1.08
2024-01-22T22:24:13.548Z,1.06
2024-01-22T22:26:41.269Z,1.05
2024-01-22T22:29:08.820Z,1.04
2024-01-22T22:31:36.547Z,1.03
2024-01-22T22:34:04.532Z,1.03
2024-01-22T22:36:32.472Z,1.04
2024-01-22T22:39:00.224Z,1.06
2024-01-22T22:41:28.261Z,1.06
2024-01-22T22:43:55.810Z,1.06
2024-01-22T22:46:23.368Z,1.04
2024-01-22T22:48:51.112Z,1.03
2024-01-22T22:51:18.931Z,1.02
2024-01-22T22:53:46.561Z,1.02
2024-01-22T22:56:14.125Z,0.99
2024-01-22T22:58:41.782Z,0.97
2024-01-22T23:01:09.550Z,0.96
2024-01-22T23:03:37.640Z,0.96
2024-01-22T23:06:05.408Z,0.98
2024-01-22T23:08:33.140Z,0.97
2024-01-22T23:11:00.702Z,0.98
2024-01-22T23:13:28.263Z,0.99
2024-01-22T23:15:55.917Z,0.98
2024-01-22T23:18:23.619Z,0.98
2024-01-22T23:20:51.367Z,1.00
2024-01-22T23:23:19.013Z,1.03
2024-01-22T23:25:46.865Z,1.03
2024-01-22T23:28:14.442Z,1.02
2024-01-22T23:30:42.141Z,1.02
2024-01-22T23:33:09.988Z,1.05
2024-01-22T23:35:37.971Z,1.06
2024-01-22T23:38:05.588Z,1.06
2024-01-22T23:40:33.259Z,1.04
2024-01-22T23:43:00.910Z,1.03
2024-01-22T23:45:28.934Z,1.06
2024-01-22T23:47:56.607Z,1.08
2024-01-22T23:50:24.412Z,1.08
2024-01-22T23:52:51.982Z,1.07
2024-01-22T23:55:19.628Z,1.06
2024-01-22T23:57:47.188Z,1.08
